createdAt,value
2022-10-13T00:00:07.282Z,13.75
2022-10-13T00:00:58.644Z,12.73
2022-10-13T00:01:45.063Z,12.74
2022-10-13T00:02:31.451Z,13.35
2022-10-13T00:03:18.283Z,12.83
2022-10-13T00:04:04.673Z,13.07
2022-10-13T00:04:51.117Z,12.91
2022-10-13T00:05:45.451Z,14.18
2022-10-13T00:06:31.775Z,13.70
2022-10-13T00:07:18.376Z,12.78
2022-10-13T00:08:04.852Z,12.21
2022-10-13T00:08:56.509Z,12.51
2022-10-13T00:09:43.178Z,12.98
2022-10-13T00:10:29.537Z,13.33
2022-10-13T00:11:20.821Z,12.47
2022-10-13T00:12:08.372Z,12.35
2022-10-13T00:12:54.809Z,12.57
2022-10-13T00:13:42.434Z,12.92
2022-10-13T00:14:28.816Z,13.27
2022-10-13T00:15:15.197Z,12.57
2022-10-13T00:16:02.411Z,12.53
2022-10-13T00:16:50.840Z,12.21
2022-10-13T00:17:37.313Z,12.17
2022-10-13T00:18:23.758Z,12.84
2022-10-13T00:19:14.856Z,13.62
2022-10-13T00:20:01.863Z,12.10
2022-10-13T00:20:49.662Z,12.02
2022-10-13T00:21:36.085Z,12.43
2022-10-13T00:22:22.504Z,12.12
2022-10-13T00:23:08.960Z,12.28
2022-10-13T00:23:55.703Z,12.49
2022-10-13T00:24:42.075Z,12.40
2022-10-13T00:25:28.997Z,13.01
2022-10-13T00:26:16.851Z,13.30
2022-10-13T00:27:03.307Z,12.31
2022-10-13T00:27:49.700Z,12.72
2022-10-13T00:28:36.678Z,12.50
2022-10-13T00:29:23.089Z,12.30
2022-10-13T00:30:09.757Z,12.45
2022-10-13T00:31:00.058Z,11.94
2022-10-13T00:31:46.575Z,12.02
2022-10-13T00:32:33.132Z,11.75
2022-10-13T00:33:19.547Z,12.68
2022-10-13T00:34:05.950Z,13.05
2022-10-13T00:34:52.361Z,12.69
2022-10-13T00:35:46.917Z,12.05
2022-10-13T00:36:34.178Z,12.18
2022-10-13T00:37:20.587Z,12.62
2022-10-13T00:38:06.972Z,12.98
2022-10-13T00:38:54.127Z,13.11
2022-10-13T00:39:40.589Z,12.80
2022-10-13T00:40:27.004Z,12.40
2022-10-13T00:41:13.528Z,11.84
2022-10-13T00:42:00.336Z,12.84
2022-10-13T00:42:46.752Z,12.84
2022-10-13T00:43:48.270Z,13.56
2022-10-13T00:44:53.603Z,13.07
2022-10-13T00:45:39.975Z,12.31
2022-10-13T00:46:28.463Z,12.14
2022-10-13T00:47:19.552Z,12.54
2022-10-13T00:48:06.113Z,11.65
2022-10-13T00:48:54.046Z,11.68
2022-10-13T00:49:40.516Z,12.28
2022-10-13T00:50:35.212Z,12.77
2022-10-13T00:51:24.667Z,12.74
2022-10-13T00:52:14.229Z,12.23
2022-10-13T00:53:01.933Z,12.11
2022-10-13T00:53:48.599Z,12.30
2022-10-13T00:54:35.647Z,12.04
2022-10-13T00:55:24.786Z,11.78
2022-10-13T00:56:13.066Z,12.36
2022-10-13T00:56:59.913Z,12.75
2022-10-13T00:57:54.601Z,12.69
2022-10-13T00:58:48.965Z,12.39
2022-10-13T00:59:37.112Z,12.40
2022-10-13T01:00:24.316Z,12.19
2022-10-13T01:01:13.919Z,12.33
2022-10-13T01:02:02.188Z,12.53
2022-10-13T01:02:48.592Z,12.55
2022-10-13T01:03:36.109Z,12.53
2022-10-13T01:04:25.996Z,12.80
2022-10-13T01:05:12.503Z,12.30
2022-10-13T01:06:01.266Z,11.94
2022-10-13T01:06:48.633Z,12.69
2022-10-13T01:07:35.887Z,12.74
2022-10-13T01:08:23.093Z,12.42
2022-10-13T01:09:09.684Z,12.22
2022-10-13T01:09:56.161Z,12.16
2022-10-13T01:10:55.813Z,12.34
2022-10-13T01:11:56.619Z,11.98
2022-10-13T01:12:59.149Z,12.68
2022-10-13T01:14:04.581Z,12.20
2022-10-13T01:14:59.459Z,12.91
2022-10-13T01:15:55.447Z,12.03
2022-10-13T01:17:11.209Z,12.30
2022-10-13T01:18:08.092Z,12.30
2022-10-13T01:19:03.927Z,12.13
2022-10-13T01:20:11.887Z,13.07
2022-10-13T01:21:13.388Z,13.33
2022-10-13T01:22:09.804Z,12.55
2022-10-13T01:23:01.948Z,12.82
2022-10-13T01:24:17.627Z,12.33
2022-10-13T01:25:35.133Z,12.70
2022-10-13T01:26:36.507Z,12.33
2022-10-13T01:27:31.807Z,12.69
2022-10-13T01:28:32.303Z,13.09
2022-10-13T01:29:27.984Z,12.49
2022-10-13T01:30:14.384Z,12.26
2022-10-13T01:31:18.588Z,12.07
2022-10-13T01:32:23.330Z,11.90
2022-10-13T01:33:09.713Z,12.52
2022-10-13T01:34:02.175Z,12.46
2022-10-13T01:34:58.591Z,13.22
2022-10-13T01:36:05.439Z,12.65
2022-10-13T01:37:02.046Z,13.27
2022-10-13T01:38:11.793Z,11.90
2022-10-13T01:39:06.951Z,12.82
2022-10-13T01:39:57.800Z,12.86
2022-10-13T01:40:51.252Z,12.24
2022-10-13T01:41:45.628Z,12.17
2022-10-13T01:42:50.310Z,13.13
2022-10-13T01:43:53.672Z,12.59
2022-10-13T01:44:44.526Z,11.69
2022-10-13T01:45:48.699Z,12.19
2022-10-13T01:46:37.971Z,12.50
2022-10-13T01:47:25.542Z,11.77
2022-10-13T01:48:13.092Z,11.84
2022-10-13T01:49:05.196Z,12.50
2022-10-13T01:49:54.046Z,12.31
2022-10-13T01:50:40.735Z,12.41
2022-10-13T01:51:29.980Z,12.92
2022-10-13T01:52:19.016Z,12.75
2022-10-13T01:53:07.367Z,12.27
2022-10-13T01:53:53.754Z,12.03
2022-10-13T01:54:40.289Z,12.49
2022-10-13T01:55:26.828Z,12.74
2022-10-13T01:56:13.322Z,12.45
2022-10-13T01:57:01.803Z,12.44
2022-10-13T01:57:48.182Z,12.45
2022-10-13T01:58:36.513Z,12.34
2022-10-13T01:59:25.545Z,12.28
2022-10-13T02:00:16.577Z,12.78
2022-10-13T02:01:29.123Z,12.54
2022-10-13T02:02:22.245Z,12.34
2022-10-13T02:03:18.687Z,12.54
2022-10-13T02:04:05.030Z,12.87
2022-10-13T02:05:00.483Z,13.08
2022-10-13T02:06:01.919Z,12.48
2022-10-13T02:06:59.767Z,12.63
2022-10-13T02:07:50.472Z,12.36
2022-10-13T02:08:58.062Z,12.25
2022-10-13T02:09:53.684Z,12.42
2022-10-13T02:10:47.979Z,12.78
2022-10-13T02:11:34.521Z,12.31
2022-10-13T02:12:27.693Z,12.22
2022-10-13T02:13:17.369Z,12.98
2022-10-13T02:14:09.801Z,13.01
2022-10-13T02:14:59.351Z,11.80
2022-10-13T02:15:53.073Z,12.44
2022-10-13T02:16:42.672Z,12.29
2022-10-13T02:17:31.536Z,12.06
2022-10-13T02:18:20.847Z,11.89
2022-10-13T02:19:09.588Z,12.09
2022-10-13T02:19:56.927Z,12.07
2022-10-13T02:20:46.061Z,11.45
2022-10-13T02:21:32.738Z,11.38
2022-10-13T02:22:25.777Z,12.25
2022-10-13T02:23:16.449Z,12.67
2022-10-13T02:24:04.301Z,11.46
2022-10-13T02:24:51.030Z,11.96
2022-10-13T02:25:39.779Z,11.81
2022-10-13T02:26:26.505Z,12.14
2022-10-13T02:27:21.755Z,12.46
2022-10-13T02:28:08.860Z,12.45
2022-10-13T02:29:12.620Z,12.33
2022-10-13T02:29:59.065Z,12.01
2022-10-13T02:30:49.127Z,12.24
2022-10-13T02:31:35.593Z,12.45
2022-10-13T02:32:22.709Z,11.95
2022-10-13T02:33:13.004Z,11.57
2022-10-13T02:34:00.009Z,11.69
2022-10-13T02:34:46.452Z,12.46
2022-10-13T02:35:33.564Z,12.23
2022-10-13T02:36:20.964Z,12.55
2022-10-13T02:37:07.350Z,11.91
2022-10-13T02:37:53.786Z,11.91
2022-10-13T02:38:40.165Z,12.73
2022-10-13T02:39:26.546Z,11.74
2022-10-13T02:40:13.353Z,11.70
2022-10-13T02:41:01.946Z,11.95
2022-10-13T02:41:48.372Z,12.48
2022-10-13T02:42:34.771Z,11.47
2022-10-13T02:43:21.159Z,11.68
2022-10-13T02:44:07.577Z,11.80
2022-10-13T02:44:56.112Z,11.96
2022-10-13T02:45:42.495Z,12.34
2022-10-13T02:46:30.991Z,12.31
2022-10-13T02:47:17.423Z,11.77
2022-10-13T02:48:03.882Z,11.79
2022-10-13T02:48:50.488Z,11.61
2022-10-13T02:49:36.865Z,11.23
2022-10-13T02:50:23.281Z,11.69
2022-10-13T02:51:10.007Z,12.14
2022-10-13T02:51:56.453Z,11.80
2022-10-13T02:52:42.855Z,11.63
2022-10-13T02:53:29.244Z,11.79
2022-10-13T02:54:15.869Z,11.36
2022-10-13T02:55:02.679Z,11.93
2022-10-13T02:55:49.154Z,11.88
2022-10-13T02:56:35.614Z,11.97
2022-10-13T02:57:22.062Z,11.69
2022-10-13T02:58:09.259Z,12.09
2022-10-13T02:58:55.623Z,12.52
2022-10-13T02:59:42.006Z,11.92
2022-10-13T03:00:28.574Z,12.29
2022-10-13T03:01:15.996Z,12.00
2022-10-13T03:02:02.540Z,12.50
2022-10-13T03:02:49.718Z,12.56
2022-10-13T03:03:36.328Z,12.60
2022-10-13T03:04:22.817Z,12.59
2022-10-13T03:05:11.298Z,12.47
2022-10-13T03:05:57.672Z,12.21
2022-10-13T03:06:45.892Z,11.71
2022-10-13T03:07:33.251Z,12.00
2022-10-13T03:08:19.594Z,12.29
2022-10-13T03:09:06.585Z,12.37
2022-10-13T03:09:53.032Z,12.38
2022-10-13T03:10:39.494Z,11.69
2022-10-13T03:11:25.980Z,12.44
2022-10-13T03:12:12.439Z,12.58
2022-10-13T03:12:58.841Z,11.53
2022-10-13T03:13:45.329Z,11.52
2022-10-13T03:14:31.809Z,12.25
2022-10-13T03:15:18.304Z,12.32
2022-10-13T03:16:08.194Z,12.36
2022-10-13T03:16:54.567Z,12.07
2022-10-13T03:17:41.085Z,11.15
2022-10-13T03:18:27.539Z,11.30
2022-10-13T03:19:13.938Z,11.62
2022-10-13T03:20:00.352Z,12.11
2022-10-13T03:20:55.224Z,12.24
2022-10-13T03:21:41.684Z,12.63
2022-10-13T03:22:28.479Z,12.39
2022-10-13T03:23:14.963Z,11.79
2022-10-13T03:24:01.460Z,12.40
2022-10-13T03:24:47.834Z,12.46
2022-10-13T03:25:34.751Z,12.65
2022-10-13T03:26:21.217Z,12.68
2022-10-13T03:27:07.622Z,12.23
2022-10-13T03:27:55.042Z,11.88
2022-10-13T03:28:41.484Z,12.39
2022-10-13T03:29:27.953Z,12.19
2022-10-13T03:30:14.395Z,11.61
2022-10-13T03:31:01.957Z,12.01
2022-10-13T03:31:48.341Z,11.47
2022-10-13T03:32:34.752Z,12.28
2022-10-13T03:33:21.168Z,11.92
2022-10-13T03:34:10.641Z,11.59
2022-10-13T03:34:57.030Z,11.72
2022-10-13T03:35:43.430Z,11.86
2022-10-13T03:36:29.867Z,12.41
2022-10-13T03:37:16.441Z,11.75
2022-10-13T03:38:02.988Z,12.33
2022-10-13T03:38:49.644Z,11.91
2022-10-13T03:39:36.208Z,12.02
2022-10-13T03:40:22.903Z,11.91
2022-10-13T03:41:13.849Z,11.78
2022-10-13T03:42:00.397Z,11.84
2022-10-13T03:42:46.778Z,12.84
2022-10-13T03:43:33.184Z,12.16
2022-10-13T03:44:19.851Z,12.14
2022-10-13T03:45:06.826Z,12.04
2022-10-13T03:45:56.803Z,11.52
2022-10-13T03:46:43.324Z,12.09
2022-10-13T03:47:30.468Z,12.30
2022-10-13T03:48:16.843Z,12.42
2022-10-13T03:49:03.264Z,12.90
2022-10-13T03:49:49.866Z,12.53
2022-10-13T03:50:37.368Z,12.68
2022-10-13T03:51:24.478Z,12.25
2022-10-13T03:52:10.861Z,12.15
2022-10-13T03:52:57.289Z,11.75
2022-10-13T03:53:44.446Z,12.58
2022-10-13T03:54:30.919Z,12.84
2022-10-13T03:55:17.330Z,12.62
2022-10-13T03:56:05.104Z,12.48
2022-10-13T03:56:53.193Z,12.66
2022-10-13T03:57:39.600Z,12.31
2022-10-13T03:58:28.508Z,11.59
2022-10-13T03:59:17.071Z,12.09
2022-10-13T04:00:04.091Z,12.50
2022-10-13T04:01:05.241Z,12.96
2022-10-13T04:01:52.204Z,12.51
2022-10-13T04:02:38.649Z,11.82
2022-10-13T04:03:25.388Z,12.01
2022-10-13T04:04:12.468Z,12.52
2022-10-13T04:05:01.638Z,13.05
2022-10-13T04:05:48.222Z,12.95
2022-10-13T04:06:34.648Z,12.98
2022-10-13T04:07:21.037Z,12.17
2022-10-13T04:08:07.892Z,12.56
2022-10-13T04:08:55.504Z,12.45
2022-10-13T04:09:42.198Z,12.56
2022-10-13T04:10:29.930Z,12.24
2022-10-13T04:11:17.181Z,12.95
2022-10-13T04:12:04.247Z,12.52
2022-10-13T04:12:50.694Z,12.05
2022-10-13T04:13:37.127Z,12.34
2022-10-13T04:14:23.572Z,12.36
2022-10-13T04:15:10.260Z,13.01
2022-10-13T04:15:56.720Z,12.24
2022-10-13T04:16:43.168Z,12.97
2022-10-13T04:17:30.760Z,12.47
2022-10-13T04:18:17.273Z,12.79
2022-10-13T04:19:05.110Z,11.98
2022-10-13T04:19:51.498Z,11.74
2022-10-13T04:20:40.757Z,11.89
2022-10-13T04:21:28.394Z,11.48
2022-10-13T04:22:14.763Z,12.40
2022-10-13T04:23:07.208Z,13.04
2022-10-13T04:23:57.839Z,12.45
2022-10-13T04:24:44.220Z,11.92
2022-10-13T04:25:30.638Z,12.85
2022-10-13T04:26:18.524Z,12.29
2022-10-13T04:27:04.948Z,11.36
2022-10-13T04:27:51.376Z,11.66
2022-10-13T04:28:37.911Z,12.07
2022-10-13T04:29:24.275Z,12.27
2022-10-13T04:30:13.614Z,12.25
2022-10-13T04:31:00.747Z,12.46
2022-10-13T04:31:49.212Z,12.81
2022-10-13T04:32:35.582Z,12.56
2022-10-13T04:33:22.299Z,11.86
2022-10-13T04:34:08.818Z,12.28
2022-10-13T04:34:55.399Z,11.25
2022-10-13T04:35:41.890Z,11.24
2022-10-13T04:36:28.366Z,12.33
2022-10-13T04:37:14.967Z,11.85
2022-10-13T04:38:01.369Z,11.61
2022-10-13T04:38:48.047Z,12.42
2022-10-13T04:39:34.639Z,11.51
2022-10-13T04:40:21.012Z,12.44
2022-10-13T04:41:08.422Z,12.35
2022-10-13T04:41:54.997Z,12.21
2022-10-13T04:42:41.767Z,11.97
2022-10-13T04:43:28.751Z,11.98
2022-10-13T04:44:18.938Z,12.47
2022-10-13T04:45:05.590Z,12.63
2022-10-13T04:45:51.990Z,12.12
2022-10-13T04:46:38.461Z,12.53
2022-10-13T04:47:24.846Z,12.13
2022-10-13T04:48:11.258Z,11.74
2022-10-13T04:48:58.914Z,11.56
2022-10-13T04:49:51.648Z,12.40
2022-10-13T04:50:38.533Z,12.66
2022-10-13T04:51:26.419Z,12.51
2022-10-13T04:52:12.792Z,12.61
2022-10-13T04:52:59.390Z,12.50
2022-10-13T04:53:46.159Z,11.80
2022-10-13T04:54:33.537Z,11.85
2022-10-13T04:55:19.938Z,11.76
2022-10-13T04:56:08.691Z,12.47
2022-10-13T04:56:55.088Z,12.52
2022-10-13T04:57:41.959Z,12.53
2022-10-13T04:58:28.349Z,11.98
2022-10-13T04:59:14.789Z,12.14
2022-10-13T05:00:01.741Z,12.40
2022-10-13T05:00:50.945Z,12.43
2022-10-13T05:01:42.131Z,12.26
2022-10-13T05:02:34.779Z,13.03
2022-10-13T05:03:23.399Z,12.42
2022-10-13T05:04:10.496Z,11.72
2022-10-13T05:04:57.055Z,12.90
2022-10-13T05:05:43.443Z,12.77
2022-10-13T05:06:32.877Z,11.85
2022-10-13T05:07:19.375Z,12.62
2022-10-13T05:08:06.455Z,12.52
2022-10-13T05:08:52.887Z,12.44
2022-10-13T05:09:39.354Z,12.30
2022-10-13T05:10:34.527Z,13.04
2022-10-13T05:11:22.193Z,13.15
2022-10-13T05:12:08.739Z,12.63
2022-10-13T05:12:55.226Z,12.46
2022-10-13T05:13:41.728Z,13.06
2022-10-13T05:14:28.300Z,12.92
2022-10-13T05:15:14.734Z,12.46
2022-10-13T05:16:01.183Z,11.93
2022-10-13T05:16:48.156Z,12.38
2022-10-13T05:17:35.699Z,12.39
2022-10-13T05:18:27.508Z,11.47
2022-10-13T05:19:16.973Z,11.49
2022-10-13T05:20:03.956Z,12.37
2022-10-13T05:20:50.362Z,12.18
2022-10-13T05:21:37.023Z,12.55
2022-10-13T05:22:23.560Z,11.93
2022-10-13T05:23:09.982Z,12.40
2022-10-13T05:23:57.801Z,12.42
2022-10-13T05:24:44.583Z,13.16
2022-10-13T05:25:33.831Z,13.35
2022-10-13T05:26:20.710Z,12.89
2022-10-13T05:27:09.328Z,12.46
2022-10-13T05:27:55.761Z,11.67
2022-10-13T05:28:42.624Z,11.90
2022-10-13T05:29:29.091Z,11.87
2022-10-13T05:30:15.530Z,12.49
2022-10-13T05:31:08.918Z,12.29
2022-10-13T05:31:55.453Z,12.48
2022-10-13T05:32:41.868Z,13.03
2022-10-13T05:33:28.390Z,13.30
2022-10-13T05:34:14.857Z,12.53
2022-10-13T05:35:01.431Z,12.33
2022-10-13T05:35:48.305Z,12.12
2022-10-13T05:36:34.847Z,12.74
2022-10-13T05:37:22.647Z,12.86
2022-10-13T05:38:09.028Z,12.20
2022-10-13T05:38:56.933Z,12.38
2022-10-13T05:39:43.387Z,12.32
2022-10-13T05:40:29.804Z,12.03
2022-10-13T05:41:24.769Z,12.31
2022-10-13T05:42:11.373Z,12.25
2022-10-13T05:42:58.109Z,12.47
2022-10-13T05:43:44.591Z,12.65
2022-10-13T05:44:30.972Z,12.63
2022-10-13T05:45:19.562Z,12.99
2022-10-13T05:46:06.637Z,12.29
2022-10-13T05:46:56.381Z,11.98
2022-10-13T05:47:42.810Z,12.59
2022-10-13T05:48:30.077Z,11.88
2022-10-13T05:49:16.906Z,12.26
2022-10-13T05:50:03.440Z,12.07
2022-10-13T05:50:50.064Z,12.83
2022-10-13T05:51:42.666Z,12.62
2022-10-13T05:52:32.226Z,12.60
2022-10-13T05:53:19.283Z,12.79
2022-10-13T05:54:13.559Z,12.44
2022-10-13T05:55:03.390Z,12.26
2022-10-13T05:55:51.444Z,11.61
2022-10-13T05:56:42.450Z,12.43
2022-10-13T05:57:32.485Z,12.93
2022-10-13T05:58:20.571Z,12.13
2022-10-13T05:59:09.621Z,12.08
2022-10-13T05:59:59.717Z,11.93
2022-10-13T06:00:46.778Z,11.91
2022-10-13T06:01:37.930Z,12.94
2022-10-13T06:02:27.517Z,12.20
2022-10-13T06:03:16.863Z,11.94
2022-10-13T06:04:06.637Z,12.46
2022-10-13T06:04:57.014Z,12.17
2022-10-13T06:05:47.348Z,11.33
2022-10-13T06:06:33.963Z,11.33
2022-10-13T06:07:21.190Z,11.95
2022-10-13T06:08:07.777Z,11.96
2022-10-13T06:08:54.227Z,12.45
2022-10-13T06:09:42.084Z,12.09
2022-10-13T06:10:29.129Z,12.48
2022-10-13T06:11:15.526Z,12.66
2022-10-13T06:12:01.933Z,12.34
2022-10-13T06:12:48.361Z,12.27
2022-10-13T06:13:35.122Z,12.35
2022-10-13T06:14:21.501Z,12.46
2022-10-13T06:15:09.682Z,12.43
2022-10-13T06:15:56.275Z,11.21
2022-10-13T06:16:42.654Z,11.50
2022-10-13T06:17:29.358Z,14.96
2022-10-13T06:18:16.093Z,17.94
2022-10-13T06:19:03.246Z,17.29
2022-10-13T06:19:49.631Z,14.67
2022-10-13T06:20:36.901Z,13.44
2022-10-13T06:21:23.311Z,12.61
2022-10-13T06:22:09.738Z,12.63
2022-10-13T06:22:56.374Z,12.29
2022-10-13T06:23:42.772Z,12.64
2022-10-13T06:24:29.273Z,13.41
2022-10-13T06:25:15.774Z,12.99
2022-10-13T06:26:02.200Z,12.75
2022-10-13T06:26:49.486Z,12.53
2022-10-13T06:27:35.975Z,12.57
2022-10-13T06:28:22.530Z,13.33
2022-10-13T06:29:09.058Z,12.70
2022-10-13T06:29:55.685Z,12.74
2022-10-13T06:30:43.370Z,12.53
2022-10-13T06:31:30.770Z,12.51
2022-10-13T06:32:17.529Z,12.48
2022-10-13T06:33:04.750Z,12.72
2022-10-13T06:33:52.642Z,12.96
2022-10-13T06:34:39.454Z,12.50
2022-10-13T06:35:25.866Z,13.27
2022-10-13T06:36:12.297Z,12.92
2022-10-13T06:36:58.856Z,12.50
2022-10-13T06:37:47.427Z,12.11
2022-10-13T06:38:34.053Z,12.26
2022-10-13T06:39:20.821Z,12.97
2022-10-13T06:40:08.901Z,11.81
2022-10-13T06:40:58.900Z,12.07
2022-10-13T06:41:48.238Z,12.20
2022-10-13T06:42:34.891Z,11.88
2022-10-13T06:43:34.558Z,11.78
2022-10-13T06:44:25.678Z,12.81
2022-10-13T06:45:14.985Z,12.07
2022-10-13T06:46:01.382Z,12.04
2022-10-13T06:46:47.809Z,11.99
2022-10-13T06:47:34.206Z,12.62
2022-10-13T06:48:20.586Z,12.49
2022-10-13T06:49:10.202Z,11.96
2022-10-13T06:49:56.623Z,12.85
2022-10-13T06:50:43.127Z,12.83
2022-10-13T06:51:29.529Z,12.28
2022-10-13T06:52:15.890Z,12.63
2022-10-13T06:53:02.341Z,12.33
2022-10-13T06:53:48.875Z,12.18
2022-10-13T06:54:38.770Z,11.78
2022-10-13T06:55:25.211Z,12.25
2022-10-13T06:56:11.542Z,12.96
2022-10-13T06:56:57.980Z,12.92
2022-10-13T06:57:44.358Z,13.19
2022-10-13T06:58:30.855Z,12.67
2022-10-13T06:59:18.010Z,12.36
2022-10-13T07:00:06.264Z,12.42
2022-10-13T07:00:55.449Z,12.30
2022-10-13T07:01:44.290Z,12.42
2022-10-13T07:02:32.108Z,12.56
2022-10-13T07:03:18.551Z,12.47
2022-10-13T07:04:06.613Z,12.36
2022-10-13T07:04:53.127Z,12.26
2022-10-13T07:05:39.640Z,12.26
2022-10-13T07:06:26.184Z,11.91
2022-10-13T07:07:14.617Z,12.42
2022-10-13T07:08:02.339Z,12.36
2022-10-13T07:08:48.690Z,12.28
2022-10-13T07:09:36.513Z,12.35
2022-10-13T07:10:23.192Z,12.21
2022-10-13T07:11:15.918Z,12.28
2022-10-13T07:12:07.920Z,12.31
2022-10-13T07:12:54.300Z,11.86
2022-10-13T07:13:46.321Z,11.51
2022-10-13T07:14:35.906Z,11.34
2022-10-13T07:15:24.673Z,11.63
2022-10-13T07:16:11.883Z,11.47
2022-10-13T07:16:58.254Z,11.14
2022-10-13T07:17:44.683Z,12.27
2022-10-13T07:18:31.887Z,12.09
2022-10-13T07:19:18.352Z,11.39
2022-10-13T07:20:07.399Z,11.98
2022-10-13T07:20:53.934Z,11.93
2022-10-13T07:21:40.317Z,11.76
2022-10-13T07:22:26.791Z,12.24
2022-10-13T07:23:13.404Z,12.05
2022-10-13T07:24:01.810Z,13.09
2022-10-13T07:24:48.874Z,13.28
2022-10-13T07:25:35.261Z,12.76
2022-10-13T07:26:22.392Z,13.08
2022-10-13T07:27:09.062Z,13.15
2022-10-13T07:27:55.516Z,13.10
2022-10-13T07:28:43.573Z,13.06
2022-10-13T07:29:30.011Z,12.77
2022-10-13T07:30:16.791Z,12.39
2022-10-13T07:31:15.620Z,12.54
2022-10-13T07:32:01.996Z,13.11
2022-10-13T07:32:48.622Z,13.66
2022-10-13T07:33:35.031Z,12.20
2022-10-13T07:34:22.006Z,11.45
2022-10-13T07:35:09.298Z,11.75
2022-10-13T07:35:58.641Z,12.00
2022-10-13T07:36:45.233Z,12.61
2022-10-13T07:37:31.622Z,12.09
2022-10-13T07:38:18.535Z,12.32
2022-10-13T07:39:08.708Z,12.10
2022-10-13T07:39:55.988Z,11.85
2022-10-13T07:40:42.596Z,12.03
2022-10-13T07:41:29.256Z,12.55
2022-10-13T07:42:16.016Z,11.83
2022-10-13T07:43:02.751Z,11.69
2022-10-13T07:43:49.116Z,11.46
2022-10-13T07:44:35.486Z,10.82
2022-10-13T07:45:21.957Z,10.74
2022-10-13T07:46:09.980Z,11.05
2022-10-13T07:46:57.421Z,11.08
2022-10-13T07:47:43.881Z,10.61
2022-10-13T07:48:30.468Z,11.32
2022-10-13T07:49:22.380Z,10.98
2022-10-13T07:50:10.167Z,11.93
2022-10-13T07:50:56.624Z,12.65
2022-10-13T07:51:44.275Z,12.28
2022-10-13T07:52:30.728Z,11.43
2022-10-13T07:53:17.156Z,11.43
2022-10-13T07:54:03.609Z,10.83
2022-10-13T07:54:53.190Z,11.09
2022-10-13T07:55:39.659Z,10.75
2022-10-13T07:56:26.083Z,10.39
2022-10-13T07:57:12.605Z,10.67
2022-10-13T07:58:01.894Z,10.73
2022-10-13T07:58:52.547Z,10.84
2022-10-13T07:59:39.035Z,11.46
2022-10-13T08:00:27.966Z,11.62
2022-10-13T08:01:14.960Z,11.37
2022-10-13T08:02:02.669Z,11.70
2022-10-13T08:02:49.614Z,11.35
2022-10-13T08:04:31.525Z,11.44
2022-10-13T08:05:19.122Z,11.33
2022-10-13T08:06:06.287Z,10.85
2022-10-13T08:06:52.665Z,10.96
2022-10-13T08:07:39.336Z,11.62
2022-10-13T08:08:26.698Z,10.97
2022-10-13T08:09:13.401Z,10.84
2022-10-13T08:09:59.833Z,10.27
2022-10-13T08:10:46.432Z,11.03
2022-10-13T08:11:32.894Z,10.44
2022-10-13T08:12:19.494Z,10.30
2022-10-13T08:13:06.036Z,10.28
2022-10-13T08:13:52.737Z,10.30
2022-10-13T08:14:42.287Z,10.98
2022-10-13T08:15:29.268Z,10.76
2022-10-13T08:16:15.826Z,10.83
2022-10-13T08:17:02.570Z,10.92
2022-10-13T08:17:48.950Z,11.11
2022-10-13T08:18:35.570Z,10.86
2022-10-13T08:19:26.515Z,10.28
2022-10-13T08:20:13.791Z,10.70
2022-10-13T08:21:33.142Z,10.62
2022-10-13T08:22:19.141Z,11.13
2022-10-13T08:23:05.587Z,10.94
2022-10-13T08:23:51.984Z,10.98
2022-10-13T08:24:38.393Z,11.05
2022-10-13T08:25:24.920Z,10.49
2022-10-13T08:26:26.148Z,11.45
2022-10-13T08:27:19.401Z,10.96
2022-10-13T08:28:06.700Z,10.48
2022-10-13T08:30:00.025Z,10.93
2022-10-13T08:30:46.907Z,10.75
2022-10-13T08:31:33.723Z,11.36
2022-10-13T08:32:21.202Z,10.71
2022-10-13T08:33:07.786Z,10.68
2022-10-13T08:33:54.140Z,11.82
2022-10-13T08:34:40.526Z,11.25
2022-10-13T08:35:29.205Z,10.86
2022-10-13T08:36:19.629Z,11.01
2022-10-13T08:37:06.023Z,11.84
2022-10-13T08:37:52.438Z,11.70
2022-10-13T08:38:38.813Z,11.34
2022-10-13T08:39:25.390Z,11.02
2022-10-13T08:40:21.304Z,11.32
2022-10-13T08:41:17.031Z,11.59
2022-10-13T08:42:13.982Z,11.13
2022-10-13T08:43:00.794Z,10.43
2022-10-13T08:44:39.658Z,10.53
2022-10-13T08:46:16.294Z,11.27
2022-10-13T08:47:13.280Z,11.24
2022-10-13T08:48:05.988Z,10.83
2022-10-13T08:48:52.659Z,11.04
2022-10-13T08:49:42.787Z,10.40
2022-10-13T08:50:32.045Z,10.37
2022-10-13T08:51:19.036Z,10.73
2022-10-13T08:52:06.235Z,10.24
2022-10-13T08:52:56.248Z,10.46
2022-10-13T08:53:45.193Z,10.35
2022-10-13T08:54:33.267Z,10.82
2022-10-13T08:55:38.278Z,10.39
2022-10-13T08:56:27.746Z,9.98
2022-10-13T08:57:14.478Z,9.93
2022-10-13T08:58:02.222Z,9.90
2022-10-13T08:58:50.969Z,9.84
2022-10-13T08:59:37.712Z,9.93
2022-10-13T09:00:24.669Z,10.09
2022-10-13T09:01:11.013Z,10.24
2022-10-13T09:01:57.860Z,9.95
2022-10-13T09:02:45.188Z,10.19
2022-10-13T09:03:40.315Z,9.93
2022-10-13T09:04:33.161Z,10.52
2022-10-13T09:05:35.633Z,10.49
2022-10-13T09:06:31.639Z,10.06
2022-10-13T09:07:23.043Z,10.19
2022-10-13T09:08:17.124Z,9.97
2022-10-13T09:09:21.598Z,10.55
2022-10-13T09:10:09.716Z,10.44
2022-10-13T09:10:56.118Z,10.60
2022-10-13T09:11:46.922Z,9.99
2022-10-13T09:12:33.907Z,9.34
2022-10-13T09:13:20.315Z,10.13
2022-10-13T09:14:08.137Z,9.92
2022-10-13T09:15:01.226Z,9.29
2022-10-13T09:15:50.388Z,9.59
2022-10-13T09:16:38.573Z,9.22
2022-10-13T09:17:30.178Z,9.25
2022-10-13T09:18:17.153Z,9.37
2022-10-13T09:19:15.259Z,9.20
2022-10-13T09:20:07.648Z,9.57
2022-10-13T09:21:08.813Z,9.85
2022-10-13T09:21:57.034Z,9.44
2022-10-13T09:22:44.907Z,9.23
2022-10-13T09:23:31.516Z,9.99
2022-10-13T09:24:20.610Z,10.06
2022-10-13T09:25:07.130Z,9.43
2022-10-13T09:25:55.942Z,9.12
2022-10-13T09:26:43.601Z,9.98
2022-10-13T09:27:40.839Z,10.53
2022-10-13T09:28:29.546Z,10.61
2022-10-13T09:29:18.753Z,10.40
2022-10-13T09:30:26.084Z,9.80
2022-10-13T09:31:28.378Z,10.14
2022-10-13T09:32:18.196Z,10.12
2022-10-13T09:33:05.089Z,9.74
2022-10-13T09:34:21.208Z,10.14
2022-10-13T09:35:20.644Z,9.41
2022-10-13T09:36:14.728Z,10.26
2022-10-13T09:37:03.439Z,10.59
2022-10-13T09:38:03.489Z,9.87
2022-10-13T09:39:13.035Z,9.99
2022-10-13T09:40:01.859Z,9.37
2022-10-13T09:41:07.179Z,8.62
2022-10-13T09:42:14.910Z,9.19
2022-10-13T09:43:03.074Z,9.66
2022-10-13T09:43:49.584Z,10.62
2022-10-13T09:44:45.861Z,9.83
2022-10-13T09:45:32.528Z,8.98
2022-10-13T09:46:22.935Z,9.21
2022-10-13T09:47:17.752Z,9.67
2022-10-13T09:48:06.422Z,9.86
2022-10-13T09:48:57.209Z,10.35
2022-10-13T09:49:43.878Z,9.33
2022-10-13T09:50:32.341Z,9.30
2022-10-13T09:51:39.510Z,9.75
2022-10-13T09:52:38.303Z,10.44
2022-10-13T09:53:29.115Z,10.07
2022-10-13T09:54:36.470Z,9.83
2022-10-13T09:55:32.464Z,9.95
2022-10-13T09:56:23.642Z,9.72
2022-10-13T09:57:13.056Z,9.23
2022-10-13T09:58:25.684Z,9.62
2022-10-13T09:59:32.956Z,10.08
2022-10-13T10:00:24.111Z,9.91
2022-10-13T10:01:19.034Z,9.87
2022-10-13T10:02:29.013Z,9.72
2022-10-13T10:03:29.286Z,9.13
2022-10-13T10:04:26.003Z,8.91
2022-10-13T10:05:22.990Z,9.38
2022-10-13T10:06:15.615Z,10.10
2022-10-13T10:07:10.173Z,10.83
2022-10-13T10:08:01.671Z,10.32
2022-10-13T10:09:05.246Z,9.50
2022-10-13T10:09:54.696Z,10.63
2022-10-13T10:10:41.600Z,10.56
2022-10-13T10:11:33.020Z,9.86
2022-10-13T10:12:27.540Z,9.38
2022-10-13T10:13:14.932Z,9.49
2022-10-13T10:14:20.285Z,9.78
2022-10-13T10:15:17.048Z,9.98
2022-10-13T10:16:04.923Z,9.73
2022-10-13T10:17:04.042Z,8.99
2022-10-13T10:17:56.352Z,9.48
2022-10-13T10:18:47.788Z,9.60
2022-10-13T10:19:52.299Z,9.05
2022-10-13T10:20:38.735Z,9.72
2022-10-13T10:21:31.709Z,9.82
2022-10-13T10:22:33.552Z,10.13
2022-10-13T10:23:29.900Z,9.75
2022-10-13T10:24:16.388Z,10.28
2022-10-13T10:25:14.277Z,10.29
2022-10-13T10:26:19.365Z,9.92
2022-10-13T10:27:26.912Z,9.07
2022-10-13T10:28:13.275Z,9.33
2022-10-13T10:29:11.831Z,8.74
2022-10-13T10:30:05.167Z,9.28
2022-10-13T10:31:00.140Z,9.45
2022-10-13T10:31:56.450Z,10.07
2022-10-13T10:32:48.595Z,10.11
2022-10-13T10:33:58.331Z,10.05
2022-10-13T10:34:53.552Z,10.09
2022-10-13T10:36:07.617Z,9.96
2022-10-13T10:37:00.196Z,9.78
2022-10-13T10:37:55.055Z,9.71
2022-10-13T10:38:46.124Z,10.22
2022-10-13T10:39:44.342Z,9.89
2022-10-13T10:40:40.533Z,8.81
2022-10-13T10:41:54.314Z,8.35
2022-10-13T10:42:52.742Z,9.13
2022-10-13T10:43:48.166Z,9.07